Time;durP1;ratioP1;P1;durP2;ratioP2;P2;SDS_P1;SDS_P2;PMS_P1;PMS_P2;Temp;Humidity;BMP_temperature;BMP_pressure;BME280_temperature;BME280_humidity;BME280_pressure;Samples;Min_cycle;Max_cycle;Signal;HPM_P1;HPM_P2
2021/12/31 00:00:48;;;;;;;18.75;17.85;;;12.20;86.20;;;;;;4971560;28;20038;-78
2021/12/31 00:03:16;;;;;;;17.10;16.30;;;12.10;86.00;;;;;;4958859;28;20035;-78
2021/12/31 00:05:42;;;;;;;19.10;18.20;;;12.10;86.00;;;;;;4967931;28;20037;-78
2021/12/31 00:08:08;;;;;;;18.63;17.55;;;12.10;86.00;;;;;;4966888;28;20034;-78
2021/12/31 00:10:34;;;;;;;15.90;15.13;;;12.10;86.00;;;;;;4972052;28;20034;-78
2021/12/31 00:13:00;;;;;;;16.52;15.63;;;12.00;86.00;;;;;;4971950;28;20046;-78
2021/12/31 00:15:26;;;;;;;16.70;15.90;;;12.00;86.00;;;;;;4958535;28;20377;-78
2021/12/31 00:17:53;;;;;;;17.65;16.48;;;12.00;86.10;;;;;;4961017;28;20035;-78
2021/12/31 00:20:23;;;;;;;16.63;15.82;;;12.00;86.10;;;;;;4966694;28;20046;-78
2021/12/31 00:23:07;;;;;;;18.38;17.38;;;12.00;86.10;;;;;;4967073;28;20038;-78
2021/12/31 00:25:39;;;;;;;18.63;17.75;;;11.90;86.10;;;;;;4967212;28;20042;-78
2021/12/31 00:28:05;;;;;;;21.77;20.23;;;11.90;86.10;;;;;;4974197;28;20034;-78
2021/12/31 00:30:31;;;;;;;18.95;18.05;;;11.90;86.10;;;;;;4967032;28;20030;-78
2021/12/31 00:32:58;;;;;;;19.65;18.75;;;11.90;86.20;;;;;;4967675;28;20054;-78
2021/12/31 00:35:24;;;;;;;19.05;18.15;;;11.90;86.20;;;;;;4963193;28;20405;-78
2021/12/31 00:37:50;;;;;;;19.05;18.15;;;11.90;86.20;;;;;;4966731;28;20218;-78
2021/12/31 00:40:17;;;;;;;18.75;17.85;;;11.80;86.10;;;;;;4963422;28;20057;-78
2021/12/31 00:42:43;;;;;;;19.30;18.38;;;11.80;86.90;;;;;;4959072;28;20396;-78
2021/12/31 00:45:11;;;;;;;17.83;17.02;;;11.80;86.20;;;;;;4954026;28;20485;-78
2021/12/31 00:47:37;;;;;;;19.40;18.50;;;11.80;86.30;;;;;;4962236;28;20035;-78
2021/12/31 00:50:04;;;;;;;18.95;18.02;;;11.70;86.20;;;;;;4962217;28;20035;-78
2021/12/31 00:52:30;;;;;;;18.20;17.40;;;11.70;86.30;;;;;;4946907;28;20059;-78
2021/12/31 00:54:56;;;;;;;18.63;17.75;;;11.70;86.20;;;;;;4965194;28;20031;-78
2021/12/31 00:57:22;;;;;;;18.77;17.88;;;11.60;86.20;;;;;;4928809;28;20043;-78
2021/12/31 00:59:48;;;;;;;19.90;18.50;;;11.60;86.20;;;;;;4975377;28;20042;-78
2021/12/31 01:02:16;;;;;;;18.40;17.50;;;11.60;86.20;;;;;;4970095;28;20042;-78
2021/12/31 01:04:43;;;;;;;18.48;17.58;;;11.50;86.20;;;;;;4956652;28;20039;-78
2021/12/31 01:07:09;;;;;;;17.38;16.48;;;11.50;86.20;;;;;;4971765;28;20022;-78
2021/12/31 01:09:35;;;;;;;18.02;17.20;;;11.50;86.30;;;;;;4958191;28;20027;-78
2021/12/31 01:12:02;;;;;;;19.02;17.80;;;11.40;86.30;;;;;;4959992;28;20408;-78
2021/12/31 01:14:38;;;;;;;19.13;18.23;;;11.50;86.40;;;;;;4962643;28;20031;-78
2021/12/31 01:17:08;;;;;;;17.95;17.15;;;11.40;86.40;;;;;;4966677;28;20045;-78
2021/12/31 01:19:46;;;;;;;18.98;17.98;;;11.40;86.40;;;;;;4953246;28;20027;-78
2021/12/31 01:22:17;;;;;;;18.50;17.60;;;11.40;86.40;;;;;;4962181;28;20038;-78
2021/12/31 01:24:44;;;;;;;19.08;18.17;;;11.30;86.30;;;;;;4957682;28;20480;-78
2021/12/31 01:27:10;;;;;;;25.13;23.92;;;11.40;86.40;;;;;;4969930;28;20484;-78
2021/12/31 01:29:37;;;;;;;18.83;17.83;;;11.40;86.40;;;;;;4961634;28;20036;-78
2021/12/31 01:32:03;;;;;;;18.80;17.90;;;11.30;86.30;;;;;;4964480;28;20047;-78
2021/12/31 01:34:29;;;;;;;18.77;17.88;;;11.30;86.30;;;;;;4966102;28;20030;-78
2021/12/31 01:36:55;;;;;;;16.67;15.88;;;11.30;86.30;;;;;;4971192;28;20045;-78
2021/12/31 01:39:21;;;;;;;16.38;15.63;;;11.30;86.30;;;;;;4955697;28;20511;-78
2021/12/31 01:41:48;;;;;;;15.25;14.55;;;11.20;86.40;;;;;;4957959;28;20477;-78
2021/12/31 01:44:14;;;;;;;18.08;17.27;;;11.20;86.40;;;;;;4964994;28;20376;-78
2021/12/31 01:46:54;;;;;;;17.33;16.52;;;11.20;87.00;;;;;;4967586;28;20042;-78
2021/12/31 01:49:22;;;;;;;17.85;16.98;;;11.20;86.40;;;;;;4969211;28;20384;-78
2021/12/31 01:51:48;;;;;;;16.77;15.82;;;11.20;86.50;;;;;;4959011;28;20392;-78
2021/12/31 01:54:14;;;;;;;17.98;16.90;;;11.20;86.40;;;;;;4954001;28;20051;-78
2021/12/31 01:56:40;;;;;;;17.25;16.27;;;11.10;86.40;;;;;;4973995;28;20486;-78
2021/12/31 01:59:07;;;;;;;16.80;15.75;;;11.20;86.40;;;;;;4967816;28;20038;-78
2021/12/31 02:01:33;;;;;;;17.00;16.17;;;11.10;86.40;;;;;;4966512;28;20037;-78
2021/12/31 02:03:59;;;;;;;16.95;16.15;;;11.10;86.40;;;;;;4971403;28;20392;-78
2021/12/31 02:06:26;;;;;;;15.98;15.27;;;11.10;86.30;;;;;;4940283;28;20031;-78
2021/12/31 02:08:52;;;;;;;17.13;16.20;;;11.10;86.30;;;;;;4959452;28;20039;-78
2021/12/31 02:11:20;;;;;;;16.95;16.15;;;11.10;86.30;;;;;;4966149;28;20031;-78
2021/12/31 02:13:47;;;;;;;16.48;15.68;;;11.20;86.30;;;;;;4967267;28;20043;-78
2021/12/31 02:16:13;;;;;;;18.02;17.17;;;11.20;86.20;;;;;;4956198;28;20027;-78
2021/12/31 02:18:42;;;;;;;18.33;17.40;;;11.20;86.30;;;;;;4972397;28;20045;-78
2021/12/31 02:21:11;;;;;;;18.83;17.92;;;11.10;86.20;;;;;;4963294;28;20353;-78
2021/12/31 02:23:45;;;;;;;17.88;17.08;;;11.10;86.30;;;;;;4971075;28;20041;-78
2021/12/31 02:26:12;;;;;;;17.90;17.00;;;11.10;86.40;;;;;;4966870;28;20038;-78
2021/12/31 02:28:38;;;;;;;17.48;16.67;;;11.10;86.50;;;;;;4968418;28;20031;-78
2021/12/31 02:31:04;;;;;;;18.45;17.55;;;11.10;86.50;;;;;;4959859;28;20042;-78
2021/12/31 02:33:31;;;;;;;17.90;17.10;;;11.10;86.50;;;;;;4972169;28;20047;-78
2021/12/31 02:36:00;;;;;;;18.38;17.48;;;11.10;86.30;;;;;;4961448;28;20491;-78
2021/12/31 02:38:26;;;;;;;18.48;17.63;;;11.00;86.20;;;;;;4955548;28;20045;-77
2021/12/31 02:40:52;;;;;;;18.85;17.95;;;11.00;86.40;;;;;;4967941;28;20034;-78
2021/12/31 02:43:18;;;;;;;19.35;17.95;;;11.00;86.40;;;;;;4961892;28;20033;-78
2021/12/31 02:45:44;;;;;;;19.10;17.60;;;10.90;86.50;;;;;;4971476;28;20045;-81
2021/12/31 02:48:10;;;;;;;18.10;17.20;;;10.90;86.60;;;;;;4953662;28;20404;-80
2021/12/31 02:50:39;;;;;;;18.35;17.45;;;10.90;86.40;;;;;;4970637;28;20035;-80
2021/12/31 02:53:07;;;;;;;18.38;17.48;;;10.90;86.40;;;;;;4953869;28;20054;-82
2021/12/31 02:55:35;;;;;;;17.88;17.08;;;10.90;86.40;;;;;;4970197;28;20019;-80
2021/12/31 02:58:01;;;;;;;17.92;17.13;;;10.90;86.40;;;;;;4970379;28;20034;-81
2021/12/31 03:00:27;;;;;;;18.90;17.98;;;10.80;87.00;;;;;;4970052;28;20131;-80
2021/12/31 03:02:54;;;;;;;18.55;17.65;;;10.90;86.30;;;;;;4966950;28;20027;-81
2021/12/31 03:05:20;;;;;;;18.85;17.95;;;10.80;86.30;;;;;;4964174;28;20396;-82
2021/12/31 03:07:46;;;;;;;18.42;17.52;;;10.70;86.30;;;;;;4967586;28;20042;-82
2021/12/31 03:10:13;;;;;;;18.73;17.83;;;10.70;86.30;;;;;;4968190;28;20034;-81
2021/12/31 03:12:39;;;;;;;19.13;18.20;;;10.70;86.40;;;;;;4968570;28;20031;-81
2021/12/31 03:15:06;;;;;;;18.70;17.80;;;10.60;86.40;;;;;;4968640;28;20031;-80
2021/12/31 03:17:32;;;;;;;17.65;16.73;;;10.60;86.40;;;;;;4968205;28;20399;-81
2021/12/31 03:20:09;;;;;;;18.13;17.33;;;10.60;87.20;;;;;;4968688;28;20038;-80
2021/12/31 03:22:36;;;;;;;16.58;15.77;;;10.50;86.50;;;;;;4951711;28;20042;-80
2021/12/31 03:25:02;;;;;;;16.90;16.10;;;10.50;86.60;;;;;;4950828;28;20046;-82
2021/12/31 03:27:29;;;;;;;16.70;15.90;;;10.50;86.60;;;;;;4967635;28;20057;-82
2021/12/31 03:29:55;;;;;;;16.65;15.75;;;10.50;86.60;;;;;;4968036;28;20026;-79
2021/12/31 03:32:21;;;;;;;16.67;15.88;;;10.50;86.60;;;;;;4967632;28;20054;-81
2021/12/31 03:34:47;;;;;;;16.70;15.90;;;10.40;86.50;;;;;;4967395;28;20034;-79
2021/12/31 03:37:13;;;;;;;18.88;17.95;;;10.40;86.50;;;;;;4970666;28;20043;-80
2021/12/31 03:39:39;;;;;;;17.80;17.00;;;10.40;86.50;;;;;;4940741;28;20503;-79
2021/12/31 03:42:05;;;;;;;16.38;15.60;;;10.40;86.50;;;;;;4956984;28;20069;-79
2021/12/31 03:44:31;;;;;;;16.70;15.90;;;10.40;86.60;;;;;;4971283;28;20392;-80
2021/12/31 03:46:57;;;;;;;16.80;15.93;;;10.40;86.60;;;;;;4970789;28;20065;-81
2021/12/31 03:49:23;;;;;;;18.00;17.20;;;10.30;86.60;;;;;;4971157;28;20027;-80
2021/12/31 03:51:49;;;;;;;17.48;16.67;;;10.30;86.50;;;;;;4971519;28;20043;-81
2021/12/31 03:54:16;;;;;;;17.80;17.00;;;10.30;86.50;;;;;;4971618;28;20027;-82
2021/12/31 03:56:42;;;;;;;17.85;16.95;;;10.30;86.50;;;;;;4970585;28;20046;-82
2021/12/31 03:59:08;;;;;;;18.08;17.27;;;10.20;86.50;;;;;;4971466;28;20037;-82
2021/12/31 04:01:35;;;;;;;16.63;15.82;;;10.30;86.60;;;;;;4953288;28;20031;-82
2021/12/31 04:04:01;;;;;;;17.63;16.73;;;10.20;86.50;;;;;;4972850;28;20027;-81
2021/12/31 04:06:27;;;;;;;16.67;15.88;;;10.20;86.50;;;;;;4971696;28;20041;-80
2021/12/31 04:08:53;;;;;;;19.08;18.08;;;10.20;86.60;;;;;;4972320;28;20373;-80
2021/12/31 04:11:19;;;;;;;17.73;16.92;;;10.10;86.50;;;;;;4971818;28;20045;-80
2021/12/31 04:13:45;;;;;;;19.58;18.65;;;10.10;86.60;;;;;;4971670;28;20035;-82
2021/12/31 04:16:11;;;;;;;18.90;17.92;;;10.10;86.60;;;;;;4971071;28;20046;-80
2021/12/31 04:18:37;;;;;;;19.63;18.73;;;10.10;86.60;;;;;;4973673;28;20034;-81
2021/12/31 04:21:03;;;;;;;17.33;16.52;;;10.10;86.60;;;;;;4970851;28;20027;-79
2021/12/31 04:23:35;;;;;;;17.73;16.90;;;10.10;86.60;;;;;;4955030;28;20065;-78
2021/12/31 04:26:01;;;;;;;18.08;17.25;;;10.00;86.50;;;;;;4971833;28;20034;-80
2021/12/31 04:28:28;;;;;;;18.67;17.77;;;10.00;86.60;;;;;;4968662;28;20452;-81
2021/12/31 04:30:54;;;;;;;17.88;17.08;;;10.00;86.60;;;;;;4970977;28;20069;-81
2021/12/31 04:33:20;;;;;;;19.35;18.45;;;10.00;86.60;;;;;;4971212;28;20515;-80
2021/12/31 04:35:47;;;;;;;18.77;17.88;;;10.00;86.60;;;;;;4969647;28;20033;-80
2021/12/31 04:38:13;;;;;;;18.23;17.40;;;10.00;86.60;;;;;;4968709;28;20035;-80
2021/12/31 04:40:39;;;;;;;18.58;17.58;;;10.00;86.60;;;;;;4955374;28;20511;-80
2021/12/31 04:43:05;;;;;;;18.23;17.38;;;9.90;86.50;;;;;;4970383;28;20404;-80
2021/12/31 04:45:33;;;;;;;19.48;18.15;;;9.90;86.60;;;;;;4973342;28;20448;-79
2021/12/31 04:47:59;;;;;;;18.38;17.45;;;9.90;86.60;;;;;;4961382;28;20038;-79
2021/12/31 04:50:26;;;;;;;18.50;17.60;;;9.90;86.60;;;;;;4963765;28;20405;-80
2021/12/31 04:52:52;;;;;;;18.52;17.63;;;9.90;86.60;;;;;;4964362;28;20485;-80
2021/12/31 04:55:18;;;;;;;18.75;17.85;;;9.90;86.50;;;;;;4963014;28;20031;-80
2021/12/31 04:57:48;;;;;;;17.55;16.75;;;9.90;86.50;;;;;;4959395;28;20484;-80
2021/12/31 05:00:14;;;;;;;18.42;17.52;;;9.80;86.40;;;;;;4958909;28;20384;-79
2021/12/31 05:02:40;;;;;;;17.92;17.13;;;9.80;86.40;;;;;;4957221;28;20035;-79
2021/12/31 05:05:07;;;;;;;18.58;17.60;;;9.70;86.40;;;;;;4974721;28;20089;-80
2021/12/31 05:07:33;;;;;;;18.05;17.13;;;9.70;86.50;;;;;;4971849;28;20035;-79
2021/12/31 05:09:59;;;;;;;17.85;17.05;;;9.70;86.40;;;;;;4961353;28;20084;-80
2021/12/31 05:12:29;;;;;;;17.30;16.50;;;9.70;86.30;;;;;;4960238;28;20034;-80
2021/12/31 05:14:55;;;;;;;18.08;17.27;;;9.60;86.60;;;;;;4973658;28;20488;-80
2021/12/31 05:17:21;;;;;;;17.88;17.08;;;9.60;86.80;;;;;;4963601;28;20043;-80
2021/12/31 05:19:47;;;;;;;17.48;16.67;;;9.60;86.70;;;;;;4964266;28;20035;-80
2021/12/31 05:22:14;;;;;;;17.52;16.73;;;9.60;86.60;;;;;;4944102;28;20043;-79
2021/12/31 05:24:40;;;;;;;19.85;18.85;;;9.60;86.70;;;;;;4974858;28;20031;-79
2021/12/31 05:27:06;;;;;;;19.02;18.13;;;9.60;86.60;;;;;;4965915;28;20042;-80
2021/12/31 05:29:33;;;;;;;18.35;17.52;;;9.60;86.60;;;;;;4973398;28;20046;-80
2021/12/31 05:31:59;;;;;;;17.92;17.08;;;9.60;86.70;;;;;;4966507;28;20046;-79
2021/12/31 05:34:26;;;;;;;17.33;16.52;;;9.50;86.60;;;;;;4961968;28;20050;-80
2021/12/31 05:36:52;;;;;;;18.25;17.35;;;9.50;86.60;;;;;;4961072;28;20039;-80
2021/12/31 05:39:18;;;;;;;19.38;18.38;;;9.50;86.70;;;;;;4941311;28;20047;-80
2021/12/31 05:41:44;;;;;;;16.83;16.02;;;9.50;86.70;;;;;;4970360;28;20047;-79
2021/12/31 05:44:10;;;;;;;19.08;18.15;;;9.50;86.60;;;;;;4973002;28;20050;-80
2021/12/31 05:46:37;;;;;;;17.90;17.10;;;9.50;86.70;;;;;;4969961;28;20034;-80
2021/12/31 05:49:03;;;;;;;16.90;16.10;;;9.50;86.60;;;;;;4962500;28;20052;-79
2021/12/31 05:51:30;;;;;;;17.88;17.08;;;9.50;86.60;;;;;;4957386;28;20034;-79
2021/12/31 05:53:57;;;;;;;19.85;18.95;;;9.50;86.60;;;;;;4960158;28;20055;-79
2021/12/31 05:56:23;;;;;;;17.85;17.05;;;9.50;86.60;;;;;;4961782;28;20042;-79
2021/12/31 05:58:49;;;;;;;18.13;17.23;;;9.50;86.60;;;;;;4950400;28;20472;-79
2021/12/31 06:01:15;;;;;;;19.17;18.27;;;9.50;86.60;;;;;;4972325;28;20395;-79
2021/12/31 06:03:41;;;;;;;18.80;17.90;;;9.50;86.70;;;;;;4957925;28;20046;-79
2021/12/31 06:06:07;;;;;;;17.80;16.98;;;9.50;86.70;;;;;;4957670;28;20042;-80
2021/12/31 06:08:33;;;;;;;17.83;17.02;;;9.50;86.60;;;;;;4962906;28;20043;-80
2021/12/31 06:11:00;;;;;;;18.88;17.98;;;9.50;86.60;;;;;;4951916;28;20039;-85
2021/12/31 06:13:26;;;;;;;18.70;17.60;;;9.50;86.60;;;;;;4970441;28;20053;-83
2021/12/31 06:15:57;;;;;;;17.23;16.42;;;9.50;86.70;;;;;;4940962;28;20148;-82
2021/12/31 06:18:26;;;;;;;21.25;20.27;;;9.50;86.60;;;;;;4973048;28;20042;-85
2021/12/31 06:20:53;;;;;;;18.77;17.88;;;9.50;86.60;;;;;;4977330;28;20034;-83
2021/12/31 06:23:19;;;;;;;18.85;17.95;;;9.50;86.50;;;;;;4974433;28;20500;-82
2021/12/31 06:25:45;;;;;;;18.13;17.23;;;9.50;86.40;;;;;;4969076;28;20027;-81
2021/12/31 06:28:11;;;;;;;18.30;17.45;;;9.40;86.40;;;;;;4962432;28;20377;-81
2021/12/31 06:30:37;;;;;;;17.58;16.73;;;9.40;86.50;;;;;;4957993;28;20035;-83
2021/12/31 06:33:03;;;;;;;17.60;16.80;;;9.40;86.60;;;;;;4971046;28;20373;-84
2021/12/31 06:35:29;;;;;;;19.33;17.40;;;9.40;86.60;;;;;;4969937;28;20038;-83
2021/12/31 06:37:57;;;;;;;18.08;17.17;;;9.40;86.60;;;;;;4971560;28;20058;-83
2021/12/31 06:40:23;;;;;;;17.52;16.73;;;9.40;86.50;;;;;;4970231;28;20046;-83
2021/12/31 06:42:50;;;;;;;17.13;16.33;;;9.40;86.60;;;;;;4954091;28;20039;-85
2021/12/31 06:45:16;;;;;;;18.52;17.63;;;9.40;86.40;;;;;;4952759;28;20043;-85
2021/12/31 06:47:42;;;;;;;17.58;16.77;;;9.30;86.40;;;;;;4971976;28;20039;-84
2021/12/31 06:50:08;;;;;;;18.00;17.15;;;9.30;86.50;;;;;;4953493;28;20043;-85
2021/12/31 06:52:38;;;;;;;17.55;16.75;;;9.30;86.60;;;;;;4970019;28;20046;-85
2021/12/31 06:55:08;;;;;;;17.70;16.90;;;9.30;86.50;;;;;;4952704;28;20061;-83
2021/12/31 06:57:34;;;;;;;17.55;16.75;;;9.20;86.40;;;;;;4975612;28;20034;-86
2021/12/31 07:00:03;;;;;;;17.40;16.60;;;9.30;86.40;;;;;;4953797;28;20047;-85
2021/12/31 07:02:29;;;;;;;17.40;16.52;;;9.20;86.40;;;;;;4969090;28;20051;-86
2021/12/31 07:04:55;;;;;;;17.70;16.85;;;9.20;86.50;;;;;;4969756;28;20393;-83
2021/12/31 07:07:21;;;;;;;17.60;16.80;;;9.20;86.40;;;;;;4969184;28;20038;-84
2021/12/31 07:09:47;;;;;;;17.05;16.25;;;9.20;86.50;;;;;;4968368;28;20505;-84
2021/12/31 07:12:13;;;;;;;16.98;16.17;;;9.10;86.40;;;;;;4952506;28;20045;-83
2021/12/31 07:14:39;;;;;;;17.70;16.90;;;9.10;86.50;;;;;;4967622;28;20476;-84
2021/12/31 07:17:05;;;;;;;17.50;16.70;;;9.10;86.50;;;;;;4968710;28;20043;-83
2021/12/31 07:19:31;;;;;;;17.42;16.63;;;9.10;86.50;;;;;;4953982;28;20407;-85
2021/12/31 07:21:58;;;;;;;17.23;16.42;;;9.10;86.50;;;;;;4970129;28;20042;-86
2021/12/31 07:24:24;;;;;;;18.27;17.38;;;9.10;86.50;;;;;;4970108;28;20031;-82
2021/12/31 07:26:50;;;;;;;17.98;17.08;;;9.10;86.50;;;;;;4970300;28;20416;-84
2021/12/31 07:29:16;;;;;;;17.48;16.67;;;9.00;86.40;;;;;;4970032;28;20039;-83
2021/12/31 07:31:42;;;;;;;17.58;16.67;;;9.00;86.40;;;;;;4969543;28;20035;-84
2021/12/31 07:34:08;;;;;;;17.83;16.92;;;9.10;86.50;;;;;;4952229;28;20061;-84
2021/12/31 07:36:35;;;;;;;17.63;16.83;;;9.00;86.40;;;;;;4969468;28;20065;-83
2021/12/31 07:39:06;;;;;;;17.77;16.98;;;9.00;86.50;;;;;;4970266;28;20062;-82
2021/12/31 07:41:32;;;;;;;17.92;17.13;;;9.00;86.50;;;;;;4969744;28;20039;-83
2021/12/31 07:43:59;;;;;;;17.65;16.85;;;9.00;86.50;;;;;;4969206;28;20035;-84
2021/12/31 07:46:25;;;;;;;16.80;16.00;;;9.00;86.50;;;;;;4969432;28;20031;-83
2021/12/31 07:48:51;;;;;;;17.30;16.50;;;9.00;86.50;;;;;;4969537;28;20574;-82
2021/12/31 07:51:17;;;;;;;17.27;16.48;;;9.00;86.40;;;;;;4953548;28;20045;-83
2021/12/31 07:53:43;;;;;;;17.38;16.58;;;8.90;86.40;;;;;;4953872;28;20504;-81
2021/12/31 07:56:09;;;;;;;18.48;17.52;;;8.90;86.50;;;;;;4969891;28;20042;-83
2021/12/31 07:58:35;;;;;;;17.42;16.63;;;8.90;86.60;;;;;;4969552;28;20045;-84
2021/12/31 08:01:02;;;;;;;17.95;17.05;;;8.90;86.60;;;;;;4952712;28;20037;-84
2021/12/31 08:03:28;;;;;;;18.33;17.20;;;9.00;86.60;;;;;;4970062;28;20033;-83
2021/12/31 08:05:54;;;;;;;18.30;17.40;;;8.90;86.60;;;;;;4970275;28;20034;-81
2021/12/31 08:08:20;;;;;;;16.80;16.00;;;8.90;86.50;;;;;;4971026;28;20031;-80
2021/12/31 08:10:46;;;;;;;17.30;16.50;;;8.90;86.50;;;;;;4968927;28;20034;-81
2021/12/31 08:13:13;;;;;;;21.92;20.80;;;8.90;86.40;;;;;;4971046;28;20396;-80
2021/12/31 08:15:39;;;;;;;18.92;17.92;;;8.90;86.50;;;;;;4956532;28;20046;-80
2021/12/31 08:18:05;;;;;;;17.98;17.02;;;9.00;86.50;;;;;;4964472;28;20393;-80
2021/12/31 08:20:31;;;;;;;16.95;16.15;;;8.90;86.40;;;;;;4972043;28;20038;-80
2021/12/31 08:23:05;;;;;;;18.10;17.27;;;8.90;86.40;;;;;;4958357;28;20031;-80
2021/12/31 08:25:31;;;;;;;17.10;16.30;;;8.90;86.40;;;;;;4953079;28;20054;-79
2021/12/31 08:27:57;;;;;;;18.27;17.38;;;8.90;86.50;;;;;;4955634;28;20038;-79
2021/12/31 08:30:23;;;;;;;17.65;16.85;;;9.00;86.70;;;;;;4958570;28;20496;-79
2021/12/31 08:32:50;;;;;;;18.45;17.58;;;9.00;86.60;;;;;;4961226;28;20401;-79
2021/12/31 08:35:16;;;;;;;18.77;17.88;;;9.00;86.50;;;;;;4972170;28;20119;-79
2021/12/31 08:37:42;;;;;;;17.80;17.00;;;9.00;86.50;;;;;;4969677;28;20524;-79
2021/12/31 08:40:08;;;;;;;19.17;18.27;;;9.00;86.50;;;;;;4974012;28;20058;-79
2021/12/31 08:42:35;;;;;;;17.95;17.13;;;9.00;86.50;;;;;;4973253;28;20043;-79
2021/12/31 08:45:01;;;;;;;17.73;16.88;;;9.00;86.50;;;;;;4961408;28;20027;-79
2021/12/31 08:47:27;;;;;;;17.70;16.90;;;9.00;86.50;;;;;;4962546;28;20046;-79
2021/12/31 08:49:53;;;;;;;17.95;17.15;;;9.00;86.50;;;;;;4964271;28;20038;-79
2021/12/31 08:52:19;;;;;;;17.70;16.70;;;9.10;86.50;;;;;;4963026;28;20042;-79
2021/12/31 08:54:45;;;;;;;17.58;16.67;;;9.10;86.50;;;;;;4959670;28;20039;-79
2021/12/31 08:57:11;;;;;;;18.27;17.25;;;9.10;86.50;;;;;;4959671;28;20027;-79
2021/12/31 08:59:38;;;;;;;17.40;16.60;;;9.20;86.50;;;;;;4958021;28;20039;-79
2021/12/31 09:02:04;;;;;;;18.10;17.20;;;9.20;86.50;;;;;;4972208;28;20484;-79
2021/12/31 09:04:30;;;;;;;18.20;17.30;;;9.30;86.50;;;;;;4973843;28;20042;-82
2021/12/31 09:06:56;;;;;;;17.77;16.92;;;9.30;86.40;;;;;;4971990;28;20476;-84
2021/12/31 09:09:22;;;;;;;17.92;17.10;;;9.40;86.40;;;;;;4972124;28;20042;-81
2021/12/31 09:11:48;;;;;;;19.70;18.60;;;9.40;86.30;;;;;;4968765;28;20031;-82
2021/12/31 09:14:14;;;;;;;19.38;18.38;;;9.40;86.30;;;;;;4970704;28;20051;-82
2021/12/31 09:16:45;;;;;;;20.80;19.75;;;9.50;87.10;;;;;;4952716;28;20065;-85
2021/12/31 09:19:12;;;;;;;20.73;19.38;;;9.60;86.30;;;;;;4971621;28;20031;-83
2021/12/31 09:21:38;;;;;;;19.80;18.50;;;9.60;86.20;;;;;;4971398;28;20034;-83
2021/12/31 09:24:05;;;;;;;19.63;18.25;;;9.70;86.20;;;;;;4956220;28;20369;-83
2021/12/31 09:26:31;;;;;;;18.60;17.70;;;9.70;86.10;;;;;;4971927;28;20514;-85
2021/12/31 09:28:57;;;;;;;18.38;17.48;;;9.80;86.00;;;;;;4954289;28;20054;-84
2021/12/31 09:31:23;;;;;;;18.00;17.10;;;9.90;86.00;;;;;;4972211;28;20377;-83
2021/12/31 09:33:49;;;;;;;18.20;17.40;;;9.90;85.90;;;;;;4970133;28;20039;-84
2021/12/31 09:36:15;;;;;;;18.65;17.75;;;10.00;85.90;;;;;;4972980;28;20023;-85
2021/12/31 09:38:42;;;;;;;19.63;18.52;;;10.00;85.80;;;;;;4971931;28;20054;-84
2021/12/31 09:41:08;;;;;;;19.08;18.17;;;10.10;86.50;;;;;;4954651;28;20065;-80
2021/12/31 09:43:36;;;;;;;19.90;18.58;;;10.20;85.70;;;;;;4971106;28;20388;-82
2021/12/31 09:46:02;;;;;;;19.08;18.15;;;10.30;85.70;;;;;;4954120;28;20035;-81
2021/12/31 09:48:28;;;;;;;20.35;18.92;;;10.30;85.70;;;;;;4971011;28;20469;-83
2021/12/31 09:50:55;;;;;;;17.70;16.90;;;10.40;85.60;;;;;;4955335;28;20038;-84
2021/12/31 09:53:22;;;;;;;19.33;18.23;;;10.50;85.50;;;;;;4968727;28;20058;-82
2021/12/31 09:55:52;;;;;;;18.25;17.35;;;10.60;85.50;;;;;;4969548;28;20401;-83
2021/12/31 09:58:20;;;;;;;18.88;17.90;;;10.70;85.50;;;;;;4969821;28;20019;-83
2021/12/31 10:00:47;;;;;;;18.27;17.48;;;10.80;85.40;;;;;;4969442;28;20510;-83
2021/12/31 10:03:14;;;;;;;19.00;18.10;;;11.00;85.40;;;;;;4970035;28;20481;-82
2021/12/31 10:05:48;;;;;;;18.70;17.80;;;11.20;85.20;;;;;;4969924;28;20472;-82
2021/12/31 10:08:16;;;;;;;18.80;17.90;;;11.30;84.90;;;;;;4968481;28;20031;-82
2021/12/31 10:10:43;;;;;;;18.77;17.88;;;11.40;84.80;;;;;;4951979;28;20042;-81
2021/12/31 10:13:09;;;;;;;19.15;18.25;;;11.40;84.70;;;;;;4969931;28;20030;-82
2021/12/31 10:15:39;;;;;;;18.85;17.95;;;11.50;84.80;;;;;;4969392;28;20043;-80
2021/12/31 10:18:12;;;;;;;18.70;17.80;;;11.70;84.70;;;;;;4986812;28;20476;-83
2021/12/31 10:20:51;;;;;;;19.13;18.23;;;11.80;84.50;;;;;;4969215;28;20034;-83
2021/12/31 10:23:19;;;;;;;756.42;379.30;;;12.00;84.40;;;;;;4969868;28;20035;-83
2021/12/31 10:25:46;;;;;;;8.68;8.27;;;12.50;83.80;;;;;;4968386;28;20376;-82
2021/12/31 10:28:16;;;;;;;10.27;9.77;;;12.90;82.80;;;;;;4968453;28;20380;-83
2021/12/31 10:30:43;;;;;;;11.88;11.32;;;13.30;81.80;;;;;;4952582;28;20038;-83
2021/12/31 10:33:09;;;;;;;12.60;12.00;;;13.60;81.00;;;;;;4970469;28;20034;-81
2021/12/31 10:35:48;;;;;;;12.02;11.45;;;13.90;80.60;;;;;;4967982;28;20050;-82
2021/12/31 10:38:14;;;;;;;13.75;13.00;;;14.10;80.30;;;;;;4969762;28;20035;-80
2021/12/31 10:40:44;;;;;;;15.05;14.32;;;14.10;81.00;;;;;;4968431;28;20510;-79
2021/12/31 10:43:25;;;;;;;16.47;15.60;;;14.10;80.70;;;;;;4952296;28;20046;-78
2021/12/31 10:45:55;;;;;;;16.63;15.83;;;14.00;81.20;;;;;;4968287;28;20043;-82
2021/12/31 10:48:21;;;;;;;16.85;16.05;;;13.90;81.70;;;;;;4969522;28;20444;-83
2021/12/31 10:50:53;;;;;;;20.88;19.77;;;13.80;82.10;;;;;;4969291;28;20019;-82
2021/12/31 10:53:32;;;;;;;21.70;20.02;;;13.90;82.50;;;;;;4966917;28;20031;-80
2021/12/31 10:56:12;;;;;;;20.10;19.17;;;14.10;82.40;;;;;;4967560;28;20035;-80
2021/12/31 10:58:41;;;;;;;19.08;18.17;;;14.30;82.00;;;;;;4968233;28;20038;-81
2021/12/31 11:01:12;;;;;;;17.73;16.83;;;14.40;82.40;;;;;;4969478;28;20041;-79
2021/12/31 11:03:39;;;;;;;19.25;18.10;;;14.40;81.70;;;;;;4969249;28;20039;-79
2021/12/31 11:06:07;;;;;;;19.70;18.33;;;14.30;81.90;;;;;;4951091;28;20034;-81
2021/12/31 11:08:34;;;;;;;19.02;18.13;;;14.20;82.30;;;;;;4943945;29;20054;-79
2021/12/31 11:11:04;;;;;;;18.08;17.25;;;14.10;82.80;;;;;;4948623;28;20046;-82
2021/12/31 11:13:30;;;;;;;19.27;18.13;;;14.10;83.10;;;;;;4980035;28;20033;-82
2021/12/31 11:16:00;;;;;;;21.45;20.45;;;14.20;83.30;;;;;;4971236;28;20069;-81
2021/12/31 11:18:26;;;;;;;23.13;22.02;;;14.30;83.30;;;;;;4959347;28;20062;-83
2021/12/31 11:21:03;;;;;;;24.38;23.17;;;14.50;82.90;;;;;;4971857;28;20485;-82
2021/12/31 11:23:30;;;;;;;25.88;24.67;;;14.70;82.60;;;;;;4961557;28;20027;-82
2021/12/31 11:26:23;;;;;;;25.50;24.30;;;14.90;82.30;;;;;;4960431;28;20499;-83
2021/12/31 11:28:50;;;;;;;26.15;24.90;;;15.00;82.00;;;;;;4962380;28;20027;-83
2021/12/31 11:31:19;;;;;;;24.13;23.02;;;15.20;81.80;;;;;;4970063;28;20491;-82
2021/12/31 11:33:46;;;;;;;26.20;25.00;;;15.20;81.70;;;;;;4972131;28;20033;-83
2021/12/31 11:36:13;;;;;;;24.13;23.02;;;15.20;81.70;;;;;;4955158;28;20031;-82
2021/12/31 11:38:39;;;;;;;24.25;23.15;;;15.20;81.90;;;;;;4973485;28;20057;-82
2021/12/31 11:41:12;;;;;;;23.65;22.55;;;15.30;82.20;;;;;;4972100;28;20400;-82
2021/12/31 11:43:42;;;;;;;25.05;23.90;;;15.30;82.20;;;;;;4967387;28;20046;-80
2021/12/31 11:46:22;;;;;;;25.25;24.05;;;15.40;82.30;;;;;;4958980;28;20045;-79
2021/12/31 11:48:52;;;;;;;26.63;24.40;;;15.50;82.10;;;;;;4962895;28;20031;-80
2021/12/31 11:51:39;;;;;;;25.20;24.00;;;15.70;81.90;;;;;;4959213;28;20488;-79
2021/12/31 11:54:06;;;;;;;22.95;21.85;;;15.90;81.60;;;;;;4980997;28;20507;-78
2021/12/31 11:56:40;;;;;;;25.98;24.77;;;16.00;81.30;;;;;;4973669;28;20027;-78
2021/12/31 11:59:09;;;;;;;25.33;24.13;;;16.00;81.20;;;;;;4967528;28;20027;-79
2021/12/31 12:01:48;;;;;;;26.80;25.50;;;16.10;81.20;;;;;;4975195;28;20369;-79
2021/12/31 12:04:26;;;;;;;26.80;25.52;;;16.20;81.20;;;;;;4973831;28;20031;-80
2021/12/31 12:06:59;;;;;;;25.60;24.40;;;16.40;81.10;;;;;;4975681;28;20440;-80
2021/12/31 12:09:45;;;;;;;28.40;27.00;;;16.70;80.60;;;;;;4979010;28;20495;-80
2021/12/31 12:12:31;;;;;;;30.45;28.95;;;16.90;80.10;;;;;;4965193;28;20057;-80
2021/12/31 12:15:01;;;;;;;29.88;28.48;;;17.10;79.80;;;;;;4964700;28;20042;-80
2021/12/31 12:17:30;;;;;;;33.47;31.13;;;17.20;79.60;;;;;;4973380;28;20030;-78
2021/12/31 12:20:02;;;;;;;34.88;33.20;;;17.20;79.60;;;;;;4975341;28;20491;-78
2021/12/31 12:22:44;;;;;;;32.60;31.10;;;17.10;79.90;;;;;;4970886;28;20027;-77
2021/12/31 12:25:14;;;;;;;;;;;17.00;81.10;;;;;;4966364;28;20034;-77
2021/12/31 12:27:40;;;;;;;29.13;27.83;;;17.00;80.50;;;;;;4967477;28;20291;-77
2021/12/31 12:30:08;;;;;;;33.22;31.25;;;17.10;80.40;;;;;;4972511;28;20030;-78
2021/12/31 12:32:50;;;;;;;32.60;31.10;;;17.20;80.20;;;;;;4947468;28;20033;-77